sensor_id;sensor_type;location;lat;lon;timestamp;pressure;altitude;pressure_sealevel;temperature;humidity
43741;BME280;29352;48.708;9.290;2023-01-30T00:02:11;98529.63;;;-10.66;84.57
43741;BME280;29352;48.708;9.290;2023-01-30T00:04:36;98519.13;;;-10.42;84.01
43741;BME280;29352;48.708;9.290;2023-01-30T00:07:01;98513.53;;;-10.52;84.34
43741;BME280;29352;48.708;9.290;2023-01-30T00:09:27;98506.81;;;-10.17;82.63
43741;BME280;29352;48.708;9.290;2023-01-30T00:11:52;98509.72;;;-10.43;82.27
43741;BME280;29352;48.708;9.290;2023-01-30T00:14:18;98507.69;;;-10.56;83.43
43741;BME280;29352;48.708;9.290;2023-01-30T00:16:43;98497.44;;;-10.57;83.35
43741;BME280;29352;48.708;9.290;2023-01-30T00:19:09;98491.88;;;-10.48;83.39
43741;BME280;29352;48.708;9.290;2023-01-30T00:21:34;98484.13;;;-10.29;83.28
43741;BME280;29352;48.708;9.290;2023-01-30T00:23:59;98473.38;;;-10.20;83.50
43741;BME280;29352;48.708;9.290;2023-01-30T00:26:25;98476.19;;;-10.07;82.25
43741;BME280;29352;48.708;9.290;2023-01-30T00:28:51;98471.41;;;-10.15;82.84
43741;BME280;29352;48.708;9.290;2023-01-30T00:31:17;98467.53;;;-10.61;82.67
43741;BME280;29352;48.708;9.290;2023-01-30T00:33:42;98463.81;;;-10.56;82.33
43741;BME280;29352;48.708;9.290;2023-01-30T00:36:09;98467.31;;;-10.57;82.93
43741;BME280;29352;48.708;9.290;2023-01-30T00:38:35;98473.03;;;-10.69;82.77
43741;BME280;29352;48.708;9.290;2023-01-30T00:41:01;98473.66;;;-10.64;84.32
43741;BME280;29352;48.708;9.290;2023-01-30T00:43:26;98467.94;;;-10.52;83.81
43741;BME280;29352;48.708;9.290;2023-01-30T00:46:24;98448.47;;;-10.40;84.57
43741;BME280;29352;48.708;9.290;2023-01-30T00:49:09;98453.84;;;-10.44;83.35
43741;BME280;29352;48.708;9.290;2023-01-30T00:51:35;98448.56;;;-10.41;83.35
43741;BME280;29352;48.708;9.290;2023-01-30T00:54:00;98453.97;;;-10.29;83.09
43741;BME280;29352;48.708;9.290;2023-01-30T00:56:26;98458.78;;;-10.21;82.55
43741;BME280;29352;48.708;9.290;2023-01-30T00:58:51;98460.84;;;-10.28;82.92
43741;BME280;29352;48.708;9.290;2023-01-30T01:01:17;98457.38;;;-10.09;81.46
43741;BME280;29352;48.708;9.290;2023-01-30T01:03:42;98467.09;;;-9.97;81.06
43741;BME280;29352;48.708;9.290;2023-01-30T01:06:07;98474.03;;;-9.97;80.50
43741;BME280;29352;48.708;9.290;2023-01-30T01:08:33;98472.59;;;-10.22;81.27
43741;BME280;29352;48.708;9.290;2023-01-30T01:10:58;98482.81;;;-9.83;80.64
43741;BME280;29352;48.708;9.290;2023-01-30T01:13:24;98487.72;;;-9.95;80.71
43741;BME280;29352;48.708;9.290;2023-01-30T01:15:50;98501.84;;;-10.40;81.71
43741;BME280;29352;48.708;9.290;2023-01-30T01:18:15;98490.66;;;-10.22;82.09
43741;BME280;29352;48.708;9.290;2023-01-30T01:20:41;98511.03;;;-10.16;82.45
43741;BME280;29352;48.708;9.290;2023-01-30T01:23:09;98519.41;;;-10.30;83.49
43741;BME280;29352;48.708;9.290;2023-01-30T01:25:35;98528.09;;;-10.70;84.59
43741;BME280;29352;48.708;9.290;2023-01-30T01:28:00;98522.44;;;-10.78;85.50
43741;BME280;29352;48.708;9.290;2023-01-30T01:30:26;98529.88;;;-10.52;85.16
43741;BME280;29352;48.708;9.290;2023-01-30T01:32:51;98540.03;;;-10.49;86.14
43741;BME280;29352;48.708;9.290;2023-01-30T01:35:17;98543.25;;;-10.62;86.41
43741;BME280;29352;48.708;9.290;2023-01-30T01:37:44;98550.78;;;-10.58;86.28
43741;BME280;29352;48.708;9.290;2023-01-30T01:40:17;98541.75;;;-10.48;86.19
43741;BME280;29352;48.708;9.290;2023-01-30T01:43:18;98546.06;;;-10.29;84.96
43741;BME280;29352;48.708;9.290;2023-01-30T01:45:52;98547.03;;;-10.51;85.25
43741;BME280;29352;48.708;9.290;2023-01-30T01:50:55;98534.72;;;-10.06;83.74
43741;BME280;29352;48.708;9.290;2023-01-30T01:53:29;98515.03;;;-10.28;83.53
43741;BME280;29352;48.708;9.290;2023-01-30T01:56:03;98517.69;;;-10.48;83.85
43741;BME280;29352;48.708;9.290;2023-01-30T01:58:36;98524.16;;;-10.39;83.63
43741;BME280;29352;48.708;9.290;2023-01-30T02:01:07;98528.34;;;-10.18;82.99
43741;BME280;29352;48.708;9.290;2023-01-30T02:03:38;98527.94;;;-10.09;82.33
43741;BME280;29352;48.708;9.290;2023-01-30T02:06:10;98530.16;;;-9.82;82.29
43741;BME280;29352;48.708;9.290;2023-01-30T02:08:43;98529.41;;;-10.03;82.31
43741;BME280;29352;48.708;9.290;2023-01-30T02:11:36;98535.25;;;-9.99;81.89
43741;BME280;29352;48.708;9.290;2023-01-30T02:14:03;98539.88;;;-9.70;81.68
43741;BME280;29352;48.708;9.290;2023-01-30T02:16:31;98534.69;;;-9.87;81.83
43741;BME280;29352;48.708;9.290;2023-01-30T02:18:56;98521.75;;;-9.87;81.68
43741;BME280;29352;48.708;9.290;2023-01-30T02:27:47;98530.47;;;-9.90;82.19
43741;BME280;29352;48.708;9.290;2023-01-30T02:30:42;98529.41;;;-10.22;83.08
43741;BME280;29352;48.708;9.290;2023-01-30T02:33:56;98531.56;;;-10.13;82.75
43741;BME280;29352;48.708;9.290;2023-01-30T02:40:12;98502.81;;;-10.62;83.46
43741;BME280;29352;48.708;9.290;2023-01-30T02:46:04;98502.50;;;-10.56;83.59
43741;BME280;29352;48.708;9.290;2023-01-30T02:48:46;98505.97;;;-10.36;82.92
43741;BME280;29352;48.708;9.290;2023-01-30T02:51:27;98507.44;;;-10.31;83.63
43741;BME280;29352;48.708;9.290;2023-01-30T02:53:57;98480.47;;;-10.25;83.60
43741;BME280;29352;48.708;9.290;2023-01-30T02:56:23;98475.03;;;-10.57;83.38
43741;BME280;29352;48.708;9.290;2023-01-30T02:59:01;98474.09;;;-10.54;83.26
43741;BME280;29352;48.708;9.290;2023-01-30T03:07:37;98508.06;;;-10.44;83.24
43741;BME280;29352;48.708;9.290;2023-01-30T03:10:32;98503.59;;;-10.41;83.58
43741;BME280;29352;48.708;9.290;2023-01-30T03:13:18;98495.47;;;-10.52;82.89
43741;BME280;29352;48.708;9.290;2023-01-30T03:16:36;98475.97;;;-10.97;83.37
43741;BME280;29352;48.708;9.290;2023-01-30T03:19:02;98459.88;;;-11.23;83.90
43741;BME280;29352;48.708;9.290;2023-01-30T03:21:30;98439.69;;;-11.73;84.77
43741;BME280;29352;48.708;9.290;2023-01-30T03:23:55;98435.72;;;-11.81;86.65
43741;BME280;29352;48.708;9.290;2023-01-30T03:26:25;98433.38;;;-11.45;86.91
43741;BME280;29352;48.708;9.290;2023-01-30T03:28:55;98431.75;;;-11.27;86.98
43741;BME280;29352;48.708;9.290;2023-01-30T03:31:24;98418.88;;;-11.08;86.49
43741;BME280;29352;48.708;9.290;2023-01-30T03:33:49;98394.53;;;-11.22;86.90
43741;BME280;29352;48.708;9.290;2023-01-30T03:36:14;98362.09;;;-10.88;86.21
43741;BME280;29352;48.708;9.290;2023-01-30T03:38:40;98347.25;;;-10.64;85.50
43741;BME280;29352;48.708;9.290;2023-01-30T03:41:06;98354.97;;;-10.64;85.07
43741;BME280;29352;48.708;9.290;2023-01-30T03:43:31;98352.72;;;-10.53;84.61
43741;BME280;29352;48.708;9.290;2023-01-30T03:45:57;98381.97;;;-10.35;84.26
43741;BME280;29352;48.708;9.290;2023-01-30T03:48:22;98391.31;;;-10.32;84.16
43741;BME280;29352;48.708;9.290;2023-01-30T03:50:48;98390.66;;;-10.18;84.12
43741;BME280;29352;48.708;9.290;2023-01-30T03:53:13;98385.75;;;-10.23;84.25
43741;BME280;29352;48.708;9.290;2023-01-30T03:55:39;98387.78;;;-10.30;84.47
43741;BME280;29352;48.708;9.290;2023-01-30T03:58:05;98384.75;;;-10.20;84.04
43741;BME280;29352;48.708;9.290;2023-01-30T04:00:31;98382.97;;;-10.37;84.52
43741;BME280;29352;48.708;9.290;2023-01-30T04:02:57;98379.09;;;-10.29;84.68
43741;BME280;29352;48.708;9.290;2023-01-30T04:05:23;98355.97;;;-10.30;84.23
43741;BME280;29352;48.708;9.290;2023-01-30T04:07:49;98354.75;;;-10.23;84.06
43741;BME280;29352;48.708;9.290;2023-01-30T04:10:16;98353.69;;;-10.19;84.11
43741;BME280;29352;48.708;9.290;2023-01-30T04:12:44;98357.94;;;-10.01;83.70
43741;BME280;29352;48.708;9.290;2023-01-30T04:15:10;98367.69;;;-10.06;83.35
43741;BME280;29352;48.708;9.290;2023-01-30T04:17:36;98371.19;;;-10.07;83.56
43741;BME280;29352;48.708;9.290;2023-01-30T04:20:02;98379.91;;;-9.92;83.47
43741;BME280;29352;48.708;9.290;2023-01-30T04:22:28;98382.56;;;-9.76;82.86
43741;BME280;29352;48.708;9.290;2023-01-30T04:24:53;98383.19;;;-9.71;82.01
43741;BME280;29352;48.708;9.290;2023-01-30T04:27:19;98392.59;;;-9.53;81.44
43741;BME280;29352;48.708;9.290;2023-01-30T04:29:44;98396.44;;;-9.26;81.10
43741;BME280;29352;48.708;9.290;2023-01-30T04:32:09;98395.88;;;-9.16;80.42
43741;BME280;29352;48.708;9.290;2023-01-30T04:34:35;98397.38;;;-9.12;80.02
43741;BME280;29352;48.708;9.290;2023-01-30T04:37:00;98389.72;;;-9.13;80.89
43741;BME280;29352;48.708;9.290;2023-01-30T04:39:26;98378.34;;;-9.26;81.09
43741;BME280;29352;48.708;9.290;2023-01-30T04:41:51;98375.31;;;-9.35;81.17
43741;BME280;29352;48.708;9.290;2023-01-30T04:44:16;98371.59;;;-9.46;81.47
43741;BME280;29352;48.708;9.290;2023-01-30T04:46:42;98381.41;;;-9.36;81.40
43741;BME280;29352;48.708;9.290;2023-01-30T04:49:10;98377.53;;;-9.44;81.54
43741;BME280;29352;48.708;9.290;2023-01-30T04:51:36;98381.34;;;-9.34;81.63
43741;BME280;29352;48.708;9.290;2023-01-30T04:54:02;98381.66;;;-9.24;81.18
43741;BME280;29352;48.708;9.290;2023-01-30T04:56:27;98386.16;;;-9.28;80.96
43741;BME280;29352;48.708;9.290;2023-01-30T04:58:53;98393.28;;;-9.16;80.82
43741;BME280;29352;48.708;9.290;2023-01-30T05:01:30;98388.56;;;-9.08;80.76
43741;BME280;29352;48.708;9.290;2023-01-30T05:04:02;98376.66;;;-8.94;79.94
43741;BME280;29352;48.708;9.290;2023-01-30T05:06:30;98378.19;;;-9.08;80.86
43741;BME280;29352;48.708;9.290;2023-01-30T05:08:56;98380.88;;;-9.09;80.77
43741;BME280;29352;48.708;9.290;2023-01-30T05:11:24;98375.47;;;-9.05;81.16
43741;BME280;29352;48.708;9.290;2023-01-30T05:13:51;98369.53;;;-9.07;81.09
43741;BME280;29352;48.708;9.290;2023-01-30T05:16:18;98363.03;;;-8.98;80.64
43741;BME280;29352;48.708;9.290;2023-01-30T05:18:45;98357.09;;;-9.00;79.68
43741;BME280;29352;48.708;9.290;2023-01-30T05:21:16;98358.38;;;-8.91;79.63
43741;BME280;29352;48.708;9.290;2023-01-30T05:23:43;98349.94;;;-8.79;79.00
43741;BME280;29352;48.708;9.290;2023-01-30T05:26:11;98340.44;;;-8.78;78.42
43741;BME280;29352;48.708;9.290;2023-01-30T05:28:37;98339.84;;;-8.68;78.42
43741;BME280;29352;48.708;9.290;2023-01-30T05:31:06;98343.00;;;-8.63;78.18
43741;BME280;29352;48.708;9.290;2023-01-30T05:33:34;98332.19;;;-8.85;78.19
43741;BME280;29352;48.708;9.290;2023-01-30T05:36:00;98326.25;;;-8.87;78.39
43741;BME280;29352;48.708;9.290;2023-01-30T05:38:27;98325.31;;;-8.70;78.16
43741;BME280;29352;48.708;9.290;2023-01-30T05:41:00;98322.25;;;-8.77;78.14
43741;BME280;29352;48.708;9.290;2023-01-30T05:43:31;98332.31;;;-8.72;77.96
43741;BME280;29352;48.708;9.290;2023-01-30T05:45:59;98321.16;;;-8.89;77.87
43741;BME280;29352;48.708;9.290;2023-01-30T05:48:26;98320.81;;;-8.67;78.10
43741;BME280;29352;48.708;9.290;2023-01-30T05:50:55;98312.88;;;-8.64;77.65
43741;BME280;29352;48.708;9.290;2023-01-30T05:53:25;98319.66;;;-8.61;77.62
43741;BME280;29352;48.708;9.290;2023-01-30T05:55:59;98329.81;;;-8.58;78.02
43741;BME280;29352;48.708;9.290;2023-01-30T05:58:28;98326.75;;;-8.65;77.86
43741;BME280;29352;48.708;9.290;2023-01-30T06:00:54;98326.38;;;-8.59;77.80
43741;BME280;29352;48.708;9.290;2023-01-30T06:03:23;98330.25;;;-8.66;77.85
43741;BME280;29352;48.708;9.290;2023-01-30T06:05:48;98326.00;;;-8.67;77.83
43741;BME280;29352;48.708;9.290;2023-01-30T06:08:14;98334.47;;;-8.49;77.62
43741;BME280;29352;48.708;9.290;2023-01-30T06:10:39;98326.16;;;-8.70;77.41
43741;BME280;29352;48.708;9.290;2023-01-30T06:13:04;98321.03;;;-8.55;77.13
43741;BME280;29352;48.708;9.290;2023-01-30T06:15:30;98326.00;;;-8.67;76.97
43741;BME280;29352;48.708;9.290;2023-01-30T06:17:56;98318.63;;;-8.43;76.72
43741;BME280;29352;48.708;9.290;2023-01-30T06:20:22;98321.81;;;-8.53;76.47
43741;BME280;29352;48.708;9.290;2023-01-30T06:22:48;98320.72;;;-8.49;76.33
43741;BME280;29352;48.708;9.290;2023-01-30T06:25:13;98325.72;;;-8.62;76.34
43741;BME280;29352;48.708;9.290;2023-01-30T06:27:39;98325.91;;;-8.65;76.33
43741;BME280;29352;48.708;9.290;2023-01-30T06:30:05;98324.66;;;-8.74;77.04
43741;BME280;29352;48.708;9.290;2023-01-30T06:32:31;98314.47;;;-8.77;76.89
43741;BME280;29352;48.708;9.290;2023-01-30T06:34:56;98303.81;;;-9.02;77.89
43741;BME280;29352;48.708;9.290;2023-01-30T06:37:22;98304.97;;;-9.08;78.27
43741;BME280;29352;48.708;9.290;2023-01-30T06:39:47;98306.88;;;-9.12;78.46
43741;BME280;29352;48.708;9.290;2023-01-30T06:42:13;98304.53;;;-9.00;78.30
43741;BME280;29352;48.708;9.290;2023-01-30T06:44:38;98299.47;;;-9.02;78.09
43741;BME280;29352;48.708;9.290;2023-01-30T06:47:03;98291.44;;;-8.97;78.04
43741;BME280;29352;48.708;9.290;2023-01-30T06:49:29;98293.19;;;-8.98;77.88
43741;BME280;29352;48.708;9.290;2023-01-30T06:51:54;98288.84;;;-8.97;77.99
43741;BME280;29352;48.708;9.290;2023-01-30T06:54:19;98298.72;;;-8.88;77.65
43741;BME280;29352;48.708;9.290;2023-01-30T06:56:45;98297.03;;;-8.89;77.82
43741;BME280;29352;48.708;9.290;2023-01-30T06:59:10;98291.28;;;-8.94;78.04
43741;BME280;29352;48.708;9.290;2023-01-30T07:01:36;98293.09;;;-8.96;77.68
43741;BME280;29352;48.708;9.290;2023-01-30T07:04:02;98294.44;;;-8.73;77.30
43741;BME280;29352;48.708;9.290;2023-01-30T07:06:28;98282.50;;;-8.76;76.51
43741;BME280;29352;48.708;9.290;2023-01-30T07:08:53;98282.25;;;-8.71;76.60
43741;BME280;29352;48.708;9.290;2023-01-30T07:11:22;98293.09;;;-8.65;76.25
43741;BME280;29352;48.708;9.290;2023-01-30T07:13:51;98309.44;;;-8.48;76.14
43741;BME280;29352;48.708;9.290;2023-01-30T07:16:16;98308.38;;;-8.60;75.99
43741;BME280;29352;48.708;9.290;2023-01-30T07:18:43;98312.00;;;-8.48;76.00
43741;BME280;29352;48.708;9.290;2023-01-30T07:21:09;98305.41;;;-8.38;75.21
43741;BME280;29352;48.708;9.290;2023-01-30T07:23:34;98309.06;;;-8.26;75.21
43741;BME280;29352;48.708;9.290;2023-01-30T07:26:04;98318.72;;;-7.70;74.59
43741;BME280;29352;48.708;9.290;2023-01-30T07:28:31;98331.06;;;-7.30;72.85
43741;BME280;29352;48.708;9.290;2023-01-30T07:31:00;98323.94;;;-7.12;71.48
43741;BME280;29352;48.708;9.290;2023-01-30T07:33:25;98333.81;;;-7.48;72.28
43741;BME280;29352;48.708;9.290;2023-01-30T07:35:52;98337.41;;;-7.79;73.67
43741;BME280;29352;48.708;9.290;2023-01-30T07:38:17;98337.28;;;-7.92;73.77
43741;BME280;29352;48.708;9.290;2023-01-30T07:40:43;98332.44;;;-8.12;74.67
43741;BME280;29352;48.708;9.290;2023-01-30T07:43:11;98341.16;;;-8.29;75.07
43741;BME280;29352;48.708;9.290;2023-01-30T07:45:43;98345.22;;;-8.09;74.81
43741;BME280;29352;48.708;9.290;2023-01-30T07:48:12;98340.50;;;-8.02;74.23
43741;BME280;29352;48.708;9.290;2023-01-30T07:50:39;98332.31;;;-8.11;74.49
43741;BME280;29352;48.708;9.290;2023-01-30T07:53:06;98343.44;;;-8.08;74.39
43741;BME280;29352;48.708;9.290;2023-01-30T07:55:35;98344.69;;;-7.86;74.33
43741;BME280;29352;48.708;9.290;2023-01-30T07:58:01;98340.72;;;-7.91;73.96
43741;BME280;29352;48.708;9.290;2023-01-30T08:00:27;98345.00;;;-7.76;73.61
43741;BME280;29352;48.708;9.290;2023-01-30T08:02:52;98331.34;;;-7.94;73.82
43741;BME280;29352;48.708;9.290;2023-01-30T08:05:18;98318.31;;;-7.92;74.01
43741;BME280;29352;48.708;9.290;2023-01-30T08:07:43;98322.94;;;-7.83;74.25
43741;BME280;29352;48.708;9.290;2023-01-30T08:10:11;98314.91;;;-7.78;73.95
43741;BME280;29352;48.708;9.290;2023-01-30T08:12:36;98311.72;;;-7.98;74.31
43741;BME280;29352;48.708;9.290;2023-01-30T08:15:02;98322.47;;;-7.90;73.93
43741;BME280;29352;48.708;9.290;2023-01-30T08:17:28;98331.69;;;-7.55;73.48
43741;BME280;29352;48.708;9.290;2023-01-30T08:19:53;98334.94;;;-7.38;72.74
43741;BME280;29352;48.708;9.290;2023-01-30T08:22:18;98361.34;;;-7.45;73.08
43741;BME280;29352;48.708;9.290;2023-01-30T08:24:44;98358.63;;;-7.58;73.68
43741;BME280;29352;48.708;9.290;2023-01-30T08:27:09;98353.19;;;-7.39;73.30
43741;BME280;29352;48.708;9.290;2023-01-30T08:29:34;98340.31;;;-7.41;73.73
43741;BME280;29352;48.708;9.290;2023-01-30T08:32:00;98323.09;;;-7.27;73.58
43741;BME280;29352;48.708;9.290;2023-01-30T08:34:26;98344.31;;;-7.49;73.98
43741;BME280;29352;48.708;9.290;2023-01-30T08:36:51;98337.81;;;-7.42;74.10
43741;BME280;29352;48.708;9.290;2023-01-30T08:39:18;98317.06;;;-7.42;74.70
43741;BME280;29352;48.708;9.290;2023-01-30T08:41:43;98327.97;;;-7.66;74.72
43741;BME280;29352;48.708;9.290;2023-01-30T08:44:09;98322.78;;;-7.66;74.67
43741;BME280;29352;48.708;9.290;2023-01-30T08:46:36;98337.00;;;-7.43;74.55
43741;BME280;29352;48.708;9.290;2023-01-30T08:49:03;98315.78;;;-7.21;74.19
43741;BME280;29352;48.708;9.290;2023-01-30T08:51:30;98328.38;;;-7.29;73.91
43741;BME280;29352;48.708;9.290;2023-01-30T08:53:56;98323.19;;;-7.43;74.42
43741;BME280;29352;48.708;9.290;2023-01-30T08:56:21;98303.91;;;-7.25;73.93
43741;BME280;29352;48.708;9.290;2023-01-30T08:58:47;98296.88;;;-7.08;73.38
43741;BME280;29352;48.708;9.290;2023-01-30T09:01:13;98288.88;;;-7.20;73.85
43741;BME280;29352;48.708;9.290;2023-01-30T09:03:40;98284.44;;;-7.03;73.18
43741;BME280;29352;48.708;9.290;2023-01-30T09:06:06;98272.72;;;-6.96;73.33
43741;BME280;29352;48.708;9.290;2023-01-30T09:08:32;98274.34;;;-6.54;72.78
43741;BME280;29352;48.708;9.290;2023-01-30T09:10:59;98265.94;;;-6.57;72.71
43741;BME280;29352;48.708;9.290;2023-01-30T09:13:26;98235.94;;;-6.49;72.70
43741;BME280;29352;48.708;9.290;2023-01-30T09:15:53;98244.88;;;-6.40;72.22
43741;BME280;29352;48.708;9.290;2023-01-30T09:18:18;98240.78;;;-5.40;69.90
43741;BME280;29352;48.708;9.290;2023-01-30T09:20:44;98248.72;;;-4.57;68.71
43741;BME280;29352;48.708;9.290;2023-01-30T09:23:10;98234.75;;;-3.86;66.11
43741;BME280;29352;48.708;9.290;2023-01-30T09:25:35;98234.19;;;-3.33;64.94
43741;BME280;29352;48.708;9.290;2023-01-30T09:28:00;98222.97;;;-2.58;63.69
43741;BME280;29352;48.708;9.290;2023-01-30T09:30:26;98233.56;;;-3.03;63.47
43741;BME280;29352;48.708;9.290;2023-01-30T09:32:51;98228.94;;;-4.00;65.21
43741;BME280;29352;48.708;9.290;2023-01-30T09:35:17;98228.19;;;-4.49;66.78
43741;BME280;29352;48.708;9.290;2023-01-30T09:37:49;98233.06;;;-4.68;67.01
43741;BME280;29352;48.708;9.290;2023-01-30T09:40:21;98231.44;;;-4.58;66.91
43741;BME280;29352;48.708;9.290;2023-01-30T09:46:16;98234.19;;;-5.20;69.42
43741;BME280;29352;48.708;9.290;2023-01-30T09:52:19;98240.38;;;-4.97;69.50
43741;BME280;29352;48.708;9.290;2023-01-30T09:54:47;98240.22;;;-5.20;70.03
43741;BME280;29352;48.708;9.290;2023-01-30T09:57:17;98235.50;;;-5.52;71.02
43741;BME280;29352;48.708;9.290;2023-01-30T10:00:05;98226.41;;;-5.33;71.14
43741;BME280;29352;48.708;9.290;2023-01-30T10:05:43;98197.47;;;-5.29;71.42
43741;BME280;29352;48.708;9.290;2023-01-30T10:11:17;98206.44;;;-5.45;72.08
43741;BME280;29352;48.708;9.290;2023-01-30T10:14:26;98201.34;;;-5.10;71.98
43741;BME280;29352;48.708;9.290;2023-01-30T10:26:53;98172.78;;;-4.64;71.37
43741;BME280;29352;48.708;9.290;2023-01-30T10:29:34;98172.28;;;-4.45;71.05
43741;BME280;29352;48.708;9.290;2023-01-30T10:32:11;98169.66;;;-4.56;71.64
43741;BME280;29352;48.708;9.290;2023-01-30T10:35:05;98176.44;;;-4.42;71.27
43741;BME280;29352;48.708;9.290;2023-01-30T10:38:02;98155.59;;;-4.42;71.83
43741;BME280;29352;48.708;9.290;2023-01-30T10:40:46;98156.19;;;-4.39;71.93
43741;BME280;29352;48.708;9.290;2023-01-30T10:43:40;98166.13;;;-4.44;72.31
43741;BME280;29352;48.708;9.290;2023-01-30T10:51:46;98136.91;;;-4.25;72.84
43741;BME280;29352;48.708;9.290;2023-01-30T10:57:31;98142.81;;;-4.12;72.86
43741;BME280;29352;48.708;9.290;2023-01-30T11:00:32;98153.78;;;-3.95;71.98
43741;BME280;29352;48.708;9.290;2023-01-30T11:08:27;98147.22;;;-4.12;72.08
43741;BME280;29352;48.708;9.290;2023-01-30T11:10:56;98152.72;;;-4.04;72.10
43741;BME280;29352;48.708;9.290;2023-01-30T11:13:30;98150.13;;;-3.82;72.01
43741;BME280;29352;48.708;9.290;2023-01-30T11:16:01;98155.56;;;-4.07;72.32
43741;BME280;29352;48.708;9.290;2023-01-30T11:18:30;98148.03;;;-4.12;72.47
43741;BME280;29352;48.708;9.290;2023-01-30T11:21:03;98145.59;;;-3.91;72.66
43741;BME280;29352;48.708;9.290;2023-01-30T11:23:42;98135.81;;;-4.22;73.23
43741;BME280;29352;48.708;9.290;2023-01-30T11:26:32;98136.94;;;-3.91;72.78
43741;BME280;29352;48.708;9.290;2023-01-30T11:29:32;98134.47;;;-3.93;72.83
43741;BME280;29352;48.708;9.290;2023-01-30T11:32:25;98143.59;;;-3.98;72.98
43741;BME280;29352;48.708;9.290;2023-01-30T11:35:17;98142.03;;;-4.01;73.31
43741;BME280;29352;48.708;9.290;2023-01-30T11:37:47;98138.13;;;-3.95;73.56
43741;BME280;29352;48.708;9.290;2023-01-30T11:43:01;98145.13;;;-3.96;75.95
43741;BME280;29352;48.708;9.290;2023-01-30T11:45:43;98138.59;;;-4.01;75.80
43741;BME280;29352;48.708;9.290;2023-01-30T11:48:22;98136.47;;;-3.96;75.47
43741;BME280;29352;48.708;9.290;2023-01-30T11:50:59;98159.72;;;-3.93;75.59
43741;BME280;29352;48.708;9.290;2023-01-30T11:53:47;98160.53;;;-4.04;76.03
43741;BME280;29352;48.708;9.290;2023-01-30T11:59:15;98145.44;;;-4.12;78.73
43741;BME280;29352;48.708;9.290;2023-01-30T12:01:49;98139.75;;;-4.63;80.03
43741;BME280;29352;48.708;9.290;2023-01-30T12:04:15;98149.31;;;-4.75;80.70
43741;BME280;29352;48.708;9.290;2023-01-30T12:06:42;98139.72;;;-4.75;81.61
43741;BME280;29352;48.708;9.290;2023-01-30T12:09:32;98145.84;;;-4.87;82.93
43741;BME280;29352;48.708;9.290;2023-01-30T12:12:01;98124.09;;;-4.75;83.46
43741;BME280;29352;48.708;9.290;2023-01-30T12:14:42;98147.09;;;-4.68;84.13
43741;BME280;29352;48.708;9.290;2023-01-30T12:17:32;98138.09;;;-4.76;84.23
43741;BME280;29352;48.708;9.290;2023-01-30T12:25:55;98136.44;;;-5.01;85.08
43741;BME280;29352;48.708;9.290;2023-01-30T12:31:25;98130.13;;;-5.09;84.59
43741;BME280;29352;48.708;9.290;2023-01-30T12:33:52;98118.88;;;-5.10;85.09
43741;BME280;29352;48.708;9.290;2023-01-30T12:39:26;98125.66;;;-5.31;85.59
43741;BME280;29352;48.708;9.290;2023-01-30T12:45:21;98122.44;;;-5.35;85.82
43741;BME280;29352;48.708;9.290;2023-01-30T12:51:04;98141.53;;;-5.23;85.50
43741;BME280;29352;48.708;9.290;2023-01-30T12:59:38;98173.00;;;-5.02;84.58
43741;BME280;29352;48.708;9.290;2023-01-30T13:02:43;98171.00;;;-5.23;86.63
43741;BME280;29352;48.708;9.290;2023-01-30T13:05:24;98184.00;;;-5.23;86.42
43741;BME280;29352;48.708;9.290;2023-01-30T13:08:11;98195.13;;;-5.20;86.30
43741;BME280;29352;48.708;9.290;2023-01-30T13:14:30;98184.97;;;-5.36;87.54
43741;BME280;29352;48.708;9.290;2023-01-30T13:23:12;98181.19;;;-5.56;88.30
43741;BME280;29352;48.708;9.290;2023-01-30T13:26:00;98171.28;;;-5.51;88.68
43741;BME280;29352;48.708;9.290;2023-01-30T13:28:47;98175.47;;;-5.61;89.39
43741;BME280;29352;48.708;9.290;2023-01-30T13:31:25;98177.72;;;-5.44;88.87
43741;BME280;29352;48.708;9.290;2023-01-30T13:34:19;98192.91;;;-5.38;88.90
43741;BME280;29352;48.708;9.290;2023-01-30T13:37:14;98199.91;;;-5.51;89.12
43741;BME280;29352;48.708;9.290;2023-01-30T13:39:46;98205.50;;;-5.44;89.15
43741;BME280;29352;48.708;9.290;2023-01-30T13:44:55;98201.66;;;-5.39;89.68
43741;BME280;29352;48.708;9.290;2023-01-30T13:47:49;98212.13;;;-5.28;89.36
43741;BME280;29352;48.708;9.290;2023-01-30T13:50:29;98204.28;;;-5.52;90.19
43741;BME280;29352;48.708;9.290;2023-01-30T13:59:21;98216.31;;;-5.01;88.15
43741;BME280;29352;48.708;9.290;2023-01-30T14:09:47;98245.38;;;-5.07;88.10
43741;BME280;29352;48.708;9.290;2023-01-30T14:12:24;98240.13;;;-5.18;88.28
43741;BME280;29352;48.708;9.290;2023-01-30T14:15:05;98229.47;;;-5.15;88.11
43741;BME280;29352;48.708;9.290;2023-01-30T14:18:12;98237.59;;;-5.07;88.19
43741;BME280;29352;48.708;9.290;2023-01-30T14:20:48;98246.03;;;-5.16;88.45
43741;BME280;29352;48.708;9.290;2023-01-30T14:23:34;98250.16;;;-5.01;88.03
43741;BME280;29352;48.708;9.290;2023-01-30T14:26:00;98238.84;;;-5.26;88.73
43741;BME280;29352;48.708;9.290;2023-01-30T14:31:01;98246.16;;;-5.18;89.53
43741;BME280;29352;48.708;9.290;2023-01-30T14:38:24;98260.75;;;-5.28;89.55
43741;BME280;29352;48.708;9.290;2023-01-30T14:45:52;98276.78;;;-5.21;89.73
43741;BME280;29352;48.708;9.290;2023-01-30T14:54:20;98273.03;;;-5.43;89.98
43741;BME280;29352;48.708;9.290;2023-01-30T15:05:08;98272.19;;;-5.31;90.45
43741;BME280;29352;48.708;9.290;2023-01-30T15:32:27;98327.94;;;-5.09;89.75
43741;BME280;29352;48.708;9.290;2023-01-30T15:35:21;98320.00;;;-4.95;88.56
43741;BME280;29352;48.708;9.290;2023-01-30T15:52:05;98345.59;;;-5.38;88.59
43741;BME280;29352;48.708;9.290;2023-01-30T15:54:36;98349.13;;;-5.39;88.68
43741;BME280;29352;48.708;9.290;2023-01-30T15:57:02;98343.28;;;-5.30;88.76
43741;BME280;29352;48.708;9.290;2023-01-30T15:59:33;98335.16;;;-5.51;89.12
43741;BME280;29352;48.708;9.290;2023-01-30T16:02:06;98347.13;;;-5.49;89.28
43741;BME280;29352;48.708;9.290;2023-01-30T16:04:39;98343.38;;;-5.57;89.69
43741;BME280;29352;48.708;9.290;2023-01-30T16:07:24;98346.50;;;-5.52;89.17
43741;BME280;29352;48.708;9.290;2023-01-30T16:09:57;98349.91;;;-5.64;89.72
43741;BME280;29352;48.708;9.290;2023-01-30T16:12:28;98352.66;;;-5.53;89.07
43741;BME280;29352;48.708;9.290;2023-01-30T16:14:55;98351.72;;;-5.52;89.10
43741;BME280;29352;48.708;9.290;2023-01-30T16:17:25;98349.63;;;-5.47;89.45
43741;BME280;29352;48.708;9.290;2023-01-30T16:19:57;98352.34;;;-5.49;88.81